Terminal Aerodrome Forecast
Issued by NWS

Home | Current Version | Previous Version | Text Only | Print | Product List | Glossary On
Versions: 1 2 3 4 5 6 7 8 9 10 11 12 13 14 15 16 17 18 19 20
000
FTUS41 KBOX 170823 AAA
TAFACK
TAF AMD
KACK 170823Z 1708/1806 29005KT 6SM BR FEW005 SCT035
     FM171000 02006KT P6SM SCT050
     FM171400 07006KT P6SM FEW050
     FM171800 17004KT P6SM SKC=

USA.gov is the U.S. government's official web portal to all federal, state and local government web resources and services.